Time;durP1;ratioP1;P1;durP2;ratioP2;P2;SDS_P1;SDS_P2;PMS_P1;PMS_P2;Temp;Humidity;BMP_temperature;BMP_pressure;BME280_temperature;BME280_humidity;BME280_pressure;Samples;Min_cycle;Max_cycle;Signal;HPM_P1;HPM_P2
2022/04/08 00:03:28;;;;;;;2.03;1.15;;;;;;;;;;10415160;28;20226;-74
2022/04/08 00:08:29;;;;;;;1.67;0.73;;;;;;;;;;10416358;28;20218;-74
2022/04/08 00:13:30;;;;;;;5.50;0.90;;;;;;;;;;10414534;28;20688;-73
2022/04/08 00:18:32;;;;;;;0.70;0.60;;;;;;;;;;10410551;28;20207;-73
2022/04/08 00:23:33;;;;;;;2.47;0.60;;;;;;;;;;10412624;28;20198;-71
2022/04/08 00:28:34;;;;;;;0.75;0.60;;;;;;;;;;10417199;28;20198;-73
2022/04/08 00:33:35;;;;;;;0.65;0.65;;;;;;;;;;10418244;28;20203;-73
2022/04/08 00:38:36;;;;;;;0.80;0.80;;;;;;;;;;10421756;28;20234;-72
2022/04/08 00:43:38;;;;;;;1.00;1.00;;;;;;;;;;10417026;28;20289;-73
2022/04/08 00:48:39;;;;;;;2.15;1.50;;;;;;;;;;10410673;28;20285;-72
2022/04/08 00:53:40;;;;;;;2.78;2.67;;;;;;;;;;10414002;28;20230;-73
2022/04/08 00:58:42;;;;;;;3.05;2.88;;;;;;;;;;10408829;28;20282;-72
2022/04/08 01:03:43;;;;;;;4.18;1.73;;;;;;;;;;10414832;28;20214;-72
2022/04/08 01:08:44;;;;;;;4.53;1.77;;;;;;;;;;10412836;28;20206;-72
2022/04/08 01:13:45;;;;;;;2.03;1.92;;;;;;;;;;10415533;28;20207;-72
2022/04/08 01:18:47;;;;;;;3.25;2.42;;;;;;;;;;10386597;28;20203;-71
2022/04/08 01:23:48;;;;;;;2.25;2.13;;;;;;;;;;10414345;28;20207;-72
2022/04/08 01:28:49;;;;;;;3.10;2.90;;;;;;;;;;10418537;28;20245;-73
2022/04/08 01:33:53;;;;;;;3.10;2.75;;;;;;;;;;10409935;28;20726;-72
2022/04/08 01:38:54;;;;;;;1.48;1.38;;;;;;;;;;10409348;28;20207;-73
2022/04/08 01:43:55;;;;;;;0.70;0.70;;;;;;;;;;10409488;28;20643;-73
2022/04/08 01:48:56;;;;;;;1.60;0.82;;;;;;;;;;10411957;28;20992;-72
2022/04/08 01:53:58;;;;;;;0.57;0.57;;;;;;;;;;10396896;28;20250;-73
2022/04/08 01:58:59;;;;;;;0.50;0.50;;;;;;;;;;10416326;28;20208;-72
2022/04/08 02:04:00;;;;;;;1.55;0.40;;;;;;;;;;10419171;28;20703;-73
2022/04/08 02:09:01;;;;;;;0.65;0.40;;;;;;;;;;10415284;28;20210;-72
2022/04/08 02:14:03;;;;;;;0.30;0.30;;;;;;;;;;10413750;28;20207;-73
2022/04/08 02:19:04;;;;;;;1.65;0.50;;;;;;;;;;10410691;28;20584;-74
2022/04/08 02:24:06;;;;;;;0.77;0.77;;;;;;;;;;10383718;28;20210;-72
2022/04/08 02:29:07;;;;;;;1.42;1.05;;;;;;;;;;10411676;28;20247;-73
2022/04/08 02:34:08;;;;;;;1.40;1.35;;;;;;;;;;10407765;28;20210;-73
2022/04/08 02:39:10;;;;;;;1.40;1.30;;;;;;;;;;10406843;28;20191;-73
2022/04/08 02:44:11;;;;;;;3.85;1.60;;;;;;;;;;10406895;28;20257;-72
2022/04/08 02:49:12;;;;;;;2.42;0.90;;;;;;;;;;10404760;28;20198;-73
2022/04/08 02:54:15;;;;;;;2.67;1.33;;;;;;;;;;10391558;28;20603;-73
2022/04/08 02:59:16;;;;;;;1.30;0.70;;;;;;;;;;10411703;28;20246;-73
2022/04/08 03:04:17;;;;;;;0.95;0.80;;;;;;;;;;10411429;28;20310;-72
2022/04/08 03:09:18;;;;;;;0.95;0.60;;;;;;;;;;10410669;28;20207;-73
2022/04/08 03:14:19;;;;;;;3.60;0.57;;;;;;;;;;10405779;28;20217;-73
2022/04/08 03:19:20;;;;;;;1.15;0.52;;;;;;;;;;10410447;28;21139;-72
2022/04/08 03:24:21;;;;;;;0.77;0.43;;;;;;;;;;10409712;28;20311;-73
2022/04/08 03:29:22;;;;;;;0.55;0.35;;;;;;;;;;10411921;28;20211;-74
2022/04/08 03:34:23;;;;;;;2.70;0.40;;;;;;;;;;10408999;28;20230;-74
2022/04/08 03:39:24;;;;;;;1.13;0.60;;;;;;;;;;10410414;28;20671;-73
2022/04/08 03:44:25;;;;;;;2.15;1.05;;;;;;;;;;10407987;28;20712;-73
2022/04/08 03:49:26;;;;;;;2.05;0.90;;;;;;;;;;10407840;28;20289;-72
2022/04/08 03:54:27;;;;;;;2.63;0.70;;;;;;;;;;10415866;28;20277;-73
2022/04/08 03:59:29;;;;;;;0.70;0.70;;;;;;;;;;10419198;28;20226;-73
2022/04/08 04:04:30;;;;;;;1.88;1.02;;;;;;;;;;10431679;28;20341;-73
2022/04/08 04:09:31;;;;;;;3.15;1.15;;;;;;;;;;10425035;28;20209;-73
2022/04/08 04:14:32;;;;;;;2.63;1.25;;;;;;;;;;10424942;28;21003;-73
2022/04/08 04:19:33;;;;;;;2.53;1.20;;;;;;;;;;10421636;28;20196;-68
2022/04/08 04:24:34;;;;;;;1.30;1.20;;;;;;;;;;10424677;28;20227;-72
2022/04/08 04:29:35;;;;;;;3.42;1.70;;;;;;;;;;10416248;28;26605;-73
2022/04/08 04:34:38;;;;;;;2.72;1.65;;;;;;;;;;10421477;28;20222;-72
2022/04/08 04:39:39;;;;;;;2.88;1.30;;;;;;;;;;10426515;28;20195;-74
2022/04/08 04:44:40;;;;;;;1.40;1.17;;;;;;;;;;10427669;28;20727;-75
2022/04/08 04:49:41;;;;;;;2.25;1.40;;;;;;;;;;10423024;28;20689;-74
2022/04/08 04:54:42;;;;;;;1.95;1.67;;;;;;;;;;10404204;28;20226;-73
2022/04/08 04:59:43;;;;;;;5.05;1.80;;;;;;;;;;10410230;28;20211;-73
2022/04/08 05:04:44;;;;;;;2.20;1.88;;;;;;;;;;10420713;28;20946;-73
2022/04/08 05:09:45;;;;;;;2.55;1.58;;;;;;;;;;10417238;28;20269;-73
2022/04/08 05:14:46;;;;;;;1.55;1.23;;;;;;;;;;10413853;28;20207;-73
2022/04/08 05:19:47;;;;;;;3.22;1.95;;;;;;;;;;10417077;28;20191;-72
2022/04/08 05:24:48;;;;;;;7.47;2.13;;;;;;;;;;10418626;28;20238;-73
2022/04/08 05:29:50;;;;;;;1.20;1.20;;;;;;;;;;10417293;28;20207;-72
2022/04/08 05:34:51;;;;;;;4.75;1.55;;;;;;;;;;10413377;28;20222;-74
2022/04/08 05:39:55;;;;;;;1.95;1.00;;;;;;;;;;10412130;28;20722;-72
2022/04/08 05:44:56;;;;;;;1.23;1.13;;;;;;;;;;10416674;28;20207;-73
2022/04/08 05:50:01;;;;;;;1.55;1.30;;;;;;;;;;10410590;28;20203;-74
2022/04/08 05:55:02;;;;;;;1.13;1.08;;;;;;;;;;10366691;28;1238508;-74
2022/04/08 06:00:04;;;;;;;0.98;0.98;;;;;;;;;;10416437;28;20206;-74
2022/04/08 06:05:05;;;;;;;1.60;1.52;;;;;;;;;;10423717;28;20903;-74
2022/04/08 06:10:06;;;;;;;2.65;0.60;;;;;;;;;;10424412;28;20244;-73
2022/04/08 06:15:08;;;;;;;0.85;0.20;;;;;;;;;;10424784;28;20210;-74
2022/04/08 06:20:09;;;;;;;0.20;0.20;;;;;;;;;;10422856;28;20202;-73
2022/04/08 06:25:12;;;;;;;0.30;0.30;;;;;;;;;;10421504;28;20211;-73
2022/04/08 06:30:14;;;;;;;0.45;0.25;;;;;;;;;;10420285;28;20290;-73
2022/04/08 06:35:15;;;;;;;1.50;0.30;;;;;;;;;;10411754;28;20639;-72
2022/04/08 06:40:17;;;;;;;3.03;0.55;;;;;;;;;;10417071;28;20195;-73
2022/04/08 06:45:18;;;;;;;2.38;0.73;;;;;;;;;;10415866;28;20246;-73
2022/04/08 06:50:19;;;;;;;1.70;0.40;;;;;;;;;;10420241;28;20249;-74
2022/04/08 06:55:20;;;;;;;0.90;0.30;;;;;;;;;;10419742;28;21152;-71
2022/04/08 07:00:22;;;;;;;2.00;0.30;;;;;;;;;;10419121;28;20215;-73
2022/04/08 07:05:25;;;;;;;1.65;0.30;;;;;;;;;;10419673;28;20855;-73
2022/04/08 07:10:26;;;;;;;0.82;0.30;;;;;;;;;;10416884;28;20249;-74
2022/04/08 07:15:27;;;;;;;1.73;0.45;;;;;;;;;;10422449;28;20218;-74
2022/04/08 07:20:28;;;;;;;3.90;0.70;;;;;;;;;;10419056;28;20198;-73
2022/04/08 07:25:29;;;;;;;2.70;0.60;;;;;;;;;;10421110;28;20205;-74
2022/04/08 07:30:31;;;;;;;5.88;0.52;;;;;;;;;;10422886;28;20634;-75
2022/04/08 07:35:33;;;;;;;5.43;1.00;;;;;;;;;;10419305;28;20833;-73
2022/04/08 07:40:34;;;;;;;3.42;0.70;;;;;;;;;;10422548;28;20294;-74
2022/04/08 07:45:36;;;;;;;4.03;0.65;;;;;;;;;;10417582;28;20694;-74
2022/04/08 07:50:37;;;;;;;5.22;0.70;;;;;;;;;;10421845;28;20286;-74
2022/04/08 07:55:39;;;;;;;5.68;0.70;;;;;;;;;;10420275;28;20219;-75
2022/04/08 08:00:40;;;;;;;2.15;0.70;;;;;;;;;;10422643;28;21076;-76
2022/04/08 08:05:41;;;;;;;2.00;0.40;;;;;;;;;;10422057;28;20925;-76
2022/04/08 08:10:42;;;;;;;3.88;0.95;;;;;;;;;;10420313;28;20222;-75
2022/04/08 08:15:43;;;;;;;9.63;0.93;;;;;;;;;;10420704;28;20867;-74
2022/04/08 08:20:44;;;;;;;2.58;0.50;;;;;;;;;;10420014;28;20199;-72
2022/04/08 08:25:45;;;;;;;5.78;0.43;;;;;;;;;;10418667;28;20194;-75
2022/04/08 08:30:46;;;;;;;4.32;0.60;;;;;;;;;;10419049;28;20225;-74
2022/04/08 08:35:47;;;;;;;2.42;0.60;;;;;;;;;;10415377;28;20210;-74
2022/04/08 08:40:48;;;;;;;4.45;0.70;;;;;;;;;;10417634;28;20203;-73
2022/04/08 08:45:50;;;;;;;1.85;0.65;;;;;;;;;;10418946;28;20825;-75
2022/04/08 08:50:52;;;;;;;6.55;0.68;;;;;;;;;;10425667;28;20294;-74
2022/04/08 08:55:53;;;;;;;4.40;0.90;;;;;;;;;;10427631;28;20234;-75
2022/04/08 09:00:54;;;;;;;3.88;0.60;;;;;;;;;;10423861;28;20255;-74
2022/04/08 09:06:04;;;;;;;3.72;0.73;;;;;;;;;;10426571;28;20203;-73
2022/04/08 09:11:06;;;;;;;3.40;0.77;;;;;;;;;;10425984;28;20214;-74
2022/04/08 09:16:07;;;;;;;1.92;0.47;;;;;;;;;;10425895;28;20222;-75
2022/04/08 09:21:08;;;;;;;5.10;0.60;;;;;;;;;;10426186;28;20202;-74
2022/04/08 09:26:14;;;;;;;2.83;1.20;;;;;;;;;;10427278;28;20211;-75
2022/04/08 09:31:16;;;;;;;6.32;0.77;;;;;;;;;;10426957;28;20286;-74
2022/04/08 09:36:33;;;;;;;2.40;0.80;;;;;;;;;;10423256;28;20234;-75
2022/04/08 09:41:42;;;;;;;2.80;0.93;;;;;;;;;;10415336;28;20260;-71
2022/04/08 09:46:43;;;;;;;3.45;0.65;;;;;;;;;;10421217;28;20215;-75
2022/04/08 09:51:45;;;;;;;2.30;0.88;;;;;;;;;;10419275;28;20514;-74
2022/04/08 09:56:46;;;;;;;2.50;0.82;;;;;;;;;;10418790;28;20251;-74
2022/04/08 10:01:48;;;;;;;2.05;0.77;;;;;;;;;;10421316;28;20229;-75
2022/04/08 10:06:49;;;;;;;1.50;0.73;;;;;;;;;;10423812;28;20362;-75
2022/04/08 10:12:08;;;;;;;2.65;0.65;;;;;;;;;;10419648;28;20745;-75
2022/04/08 10:17:09;;;;;;;3.97;0.80;;;;;;;;;;10412061;28;20763;-75
2022/04/08 10:22:18;;;;;;;4.78;0.82;;;;;;;;;;10418493;28;20199;-75
2022/04/08 10:27:29;;;;;;;4.82;1.02;;;;;;;;;;10419108;28;20203;-75
2022/04/08 10:32:40;;;;;;;1.92;0.60;;;;;;;;;;10414327;28;20227;-75
2022/04/08 10:37:41;;;;;;;5.50;0.77;;;;;;;;;;10417274;28;20456;-74
2022/04/08 10:42:43;;;;;;;3.90;0.60;;;;;;;;;;10415513;28;20594;-74
2022/04/08 10:47:48;;;;;;;1.27;0.68;;;;;;;;;;10412935;28;20227;-75
2022/04/08 10:52:49;;;;;;;3.72;0.60;;;;;;;;;;10414337;28;20337;-74
2022/04/08 10:57:54;;;;;;;2.03;0.70;;;;;;;;;;10409045;28;20313;-75
2022/04/08 11:02:56;;;;;;;0.60;0.60;;;;;;;;;;10414905;28;20759;-74
2022/04/08 11:07:59;;;;;;;2.83;0.75;;;;;;;;;;10414847;28;20200;-74
2022/04/08 11:13:00;;;;;;;1.67;0.75;;;;;;;;;;10403571;28;20747;-75
2022/04/08 11:18:01;;;;;;;1.10;0.60;;;;;;;;;;10416655;28;20683;-75
2022/04/08 11:23:02;;;;;;;2.50;0.85;;;;;;;;;;10419263;28;20200;-73
2022/04/08 11:28:07;;;;;;;5.75;0.95;;;;;;;;;;10419302;28;20203;-75
2022/04/08 11:33:18;;;;;;;3.90;0.60;;;;;;;;;;10417296;28;20216;-75
2022/04/08 11:38:20;;;;;;;2.22;0.68;;;;;;;;;;10416750;28;20639;-75
2022/04/08 11:43:22;;;;;;;2.33;0.70;;;;;;;;;;10404958;28;20209;-74
2022/04/08 11:48:23;;;;;;;1.45;0.45;;;;;;;;;;10412087;28;20207;-76
2022/04/08 11:53:25;;;;;;;1.35;0.60;;;;;;;;;;10418824;28;20289;-77
2022/04/08 11:58:30;;;;;;;2.03;0.90;;;;;;;;;;10415959;28;20235;-75
2022/04/08 12:03:32;;;;;;;1.10;0.73;;;;;;;;;;10415875;28;20207;-75
2022/04/08 12:08:34;;;;;;;3.40;0.80;;;;;;;;;;10418659;28;20205;-75
2022/04/08 12:13:36;;;;;;;3.63;1.00;;;;;;;;;;10413062;28;20800;-72
2022/04/08 12:18:46;;;;;;;0.65;0.60;;;;;;;;;;10420693;28;20223;-76
2022/04/08 12:23:48;;;;;;;1.50;0.73;;;;;;;;;;10423240;28;20207;-75
2022/04/08 12:28:49;;;;;;;3.50;0.90;;;;;;;;;;10427586;28;20199;-75
2022/04/08 12:33:50;;;;;;;1.95;0.95;;;;;;;;;;10426670;28;20210;-75
2022/04/08 12:38:51;;;;;;;1.70;0.80;;;;;;;;;;10424131;28;20194;-75
2022/04/08 12:43:54;;;;;;;2.65;1.27;;;;;;;;;;10423052;28;20250;-75
2022/04/08 12:48:55;;;;;;;2.35;0.80;;;;;;;;;;10416068;28;20662;-76
2022/04/08 12:53:56;;;;;;;2.95;0.90;;;;;;;;;;10422431;28;20226;-76
2022/04/08 12:58:59;;;;;;;4.00;0.82;;;;;;;;;;10417273;28;20206;-75
2022/04/08 13:04:00;;;;;;;1.60;0.85;;;;;;;;;;10420565;28;20250;-75
2022/04/08 13:09:01;;;;;;;1.33;0.55;;;;;;;;;;10424099;28;20289;-75
2022/04/08 13:14:03;;;;;;;3.70;0.77;;;;;;;;;;10426353;28;20215;-76
2022/04/08 13:19:04;;;;;;;3.25;1.17;;;;;;;;;;10423152;28;20207;-76
2022/04/08 13:24:06;;;;;;;2.05;1.10;;;;;;;;;;10427165;28;20693;-75
2022/04/08 13:29:10;;;;;;;2.05;0.90;;;;;;;;;;10419856;28;20301;-75
2022/04/08 13:34:11;;;;;;;2.70;0.95;;;;;;;;;;10421145;28;21014;-77
2022/04/08 13:39:12;;;;;;;1.60;1.30;;;;;;;;;;10415687;28;20771;-77
2022/04/08 13:44:15;;;;;;;2.00;1.10;;;;;;;;;;10421764;28;20202;-76
2022/04/08 13:49:16;;;;;;;2.40;1.10;;;;;;;;;;10425298;28;20876;-77
2022/04/08 13:54:17;;;;;;;1.25;1.10;;;;;;;;;;10422553;28;20225;-76
2022/04/08 13:59:18;;;;;;;2.97;1.10;;;;;;;;;;10418876;28;20524;-77
2022/04/08 14:04:19;;;;;;;3.38;1.23;;;;;;;;;;10418953;28;20239;-77
2022/04/08 14:09:20;;;;;;;2.35;0.93;;;;;;;;;;10421478;28;20211;-77
2022/04/08 14:14:21;;;;;;;1.77;0.85;;;;;;;;;;10427013;28;20238;-78
2022/04/08 14:19:22;;;;;;;1.25;1.15;;;;;;;;;;10424523;28;20199;-77
2022/04/08 14:24:25;;;;;;;2.05;1.23;;;;;;;;;;10421584;28;20233;-77
2022/04/08 14:29:26;;;;;;;2.45;1.02;;;;;;;;;;10425720;28;20203;-77
2022/04/08 14:34:27;;;;;;;1.52;1.00;;;;;;;;;;10412053;28;20592;-77
2022/04/08 14:39:29;;;;;;;2.83;0.98;;;;;;;;;;10423140;28;20191;-76
2022/04/08 14:44:30;;;;;;;1.88;0.95;;;;;;;;;;10418895;28;20652;-76
2022/04/08 14:49:31;;;;;;;1.85;0.90;;;;;;;;;;10422936;28;20646;-78
2022/04/08 14:54:32;;;;;;;2.47;1.05;;;;;;;;;;10415016;28;20304;-76
2022/04/08 14:59:33;;;;;;;2.55;1.02;;;;;;;;;;10421693;28;20192;-76
2022/04/08 15:04:34;;;;;;;0.80;0.80;;;;;;;;;;10424391;28;20226;-75
2022/04/08 15:09:35;;;;;;;0.95;0.95;;;;;;;;;;10418581;28;20204;-78
2022/04/08 15:14:36;;;;;;;1.48;1.33;;;;;;;;;;10429964;28;20241;-81
2022/04/08 15:19:37;;;;;;;1.48;1.30;;;;;;;;;;10426160;28;20199;-77
2022/04/08 15:24:38;;;;;;;1.85;1.52;;;;;;;;;;10427157;28;20207;-80
2022/04/08 15:29:39;;;;;;;1.50;1.13;;;;;;;;;;10424854;28;20198;-80
2022/04/08 15:34:41;;;;;;;2.72;1.02;;;;;;;;;;10423497;28;20242;-80
2022/04/08 15:39:42;;;;;;;1.15;0.90;;;;;;;;;;10427213;28;20214;-79
2022/04/08 15:44:43;;;;;;;2.05;1.27;;;;;;;;;;10427342;28;21083;-78
2022/04/08 15:49:44;;;;;;;1.30;1.20;;;;;;;;;;10431851;28;20706;-86
2022/04/08 15:54:45;;;;;;;1.75;1.30;;;;;;;;;;10438285;28;20233;-85
2022/04/08 15:59:46;;;;;;;1.48;1.10;;;;;;;;;;10430126;28;20225;-78
2022/04/08 16:04:47;;;;;;;2.03;1.13;;;;;;;;;;10426313;28;20215;-77
2022/04/08 16:09:48;;;;;;;0.75;0.75;;;;;;;;;;10430587;28;20470;-77
2022/04/08 16:14:51;;;;;;;2.13;1.40;;;;;;;;;;10428123;28;21075;-77
2022/04/08 16:19:52;;;;;;;1.30;1.30;;;;;;;;;;10429633;28;20210;-78
2022/04/08 16:24:55;;;;;;;2.22;1.52;;;;;;;;;;10428192;28;20762;-77
2022/04/08 16:29:56;;;;;;;1.33;1.30;;;;;;;;;;10430040;28;20230;-77
2022/04/08 16:34:57;;;;;;;3.42;1.42;;;;;;;;;;10423994;28;20301;-78
2022/04/08 16:39:58;;;;;;;2.20;1.60;;;;;;;;;;10402320;28;20226;-74
2022/04/08 16:44:59;;;;;;;1.83;1.70;;;;;;;;;;10425814;28;20201;-76
2022/04/08 16:50:00;;;;;;;2.25;1.30;;;;;;;;;;10422992;28;20574;-79
2022/04/08 16:55:01;;;;;;;2.55;2.00;;;;;;;;;;10424813;28;20258;-79
2022/04/08 17:00:07;;;;;;;5.05;1.92;;;;;;;;;;10422635;28;20309;-77
2022/04/08 17:05:08;;;;;;;3.08;1.63;;;;;;;;;;10421729;28;20222;-77
2022/04/08 17:10:13;;;;;;;4.13;1.88;;;;;;;;;;10421058;28;20202;-76
2022/04/08 17:15:14;;;;;;;2.20;2.05;;;;;;;;;;10414094;28;20305;-75
2022/04/08 17:20:15;;;;;;;2.65;2.45;;;;;;;;;;10417875;28;20760;-74
2022/04/08 17:25:16;;;;;;;2.78;2.30;;;;;;;;;;10413161;28;20652;-75
2022/04/08 17:30:17;;;;;;;3.13;2.60;;;;;;;;;;10419305;28;20672;-69
2022/04/08 17:35:18;;;;;;;9.05;3.00;;;;;;;;;;10420766;28;21272;-74
2022/04/08 17:40:25;;;;;;;3.05;2.70;;;;;;;;;;10421297;28;20204;-76
2022/04/08 17:45:26;;;;;;;3.47;2.63;;;;;;;;;;10423675;28;20207;-79
2022/04/08 17:50:28;;;;;;;3.55;3.25;;;;;;;;;;10419091;28;20211;-75
2022/04/08 17:55:30;;;;;;;2.80;2.38;;;;;;;;;;10417120;28;20280;-75
2022/04/08 18:00:31;;;;;;;4.05;3.83;;;;;;;;;;10414236;28;20218;-79
2022/04/08 18:05:33;;;;;;;3.70;3.40;;;;;;;;;;10419986;28;20206;-78
2022/04/08 18:10:33;;;;;;;4.07;3.70;;;;;;;;;;10415968;28;20195;-75
2022/04/08 18:15:35;;;;;;;6.75;3.70;;;;;;;;;;10415294;28;20276;-68
2022/04/08 18:20:36;;;;;;;4.25;3.92;;;;;;;;;;10417774;28;20293;-79
2022/04/08 18:25:37;;;;;;;4.25;4.03;;;;;;;;;;10420043;28;20369;-79
2022/04/08 18:30:39;;;;;;;4.30;4.00;;;;;;;;;;10413703;28;20354;-75
2022/04/08 18:35:40;;;;;;;5.43;4.93;;;;;;;;;;10412529;28;20216;-76
2022/04/08 18:40:41;;;;;;;4.75;4.47;;;;;;;;;;10420921;28;20683;-77
2022/04/08 18:45:43;;;;;;;5.15;4.82;;;;;;;;;;10414113;28;20231;-77
2022/04/08 18:50:47;;;;;;;9.02;6.60;;;;;;;;;;10416262;28;20214;-75
2022/04/08 18:55:48;;;;;;;8.63;7.97;;;;;;;;;;10421363;28;20222;-83
2022/04/08 19:00:49;;;;;;;6.93;6.32;;;;;;;;;;10421380;28;20210;-78
2022/04/08 19:05:50;;;;;;;6.00;5.57;;;;;;;;;;10423060;28;20669;-76
2022/04/08 19:10:51;;;;;;;6.03;5.47;;;;;;;;;;10412822;28;20208;-80
2022/04/08 19:15:52;;;;;;;9.30;8.40;;;;;;;;;;10415539;28;20264;-76
2022/04/08 19:20:53;;;;;;;7.20;6.72;;;;;;;;;;10403199;28;20732;-78
2022/04/08 19:25:54;;;;;;;6.35;5.75;;;;;;;;;;10418175;28;20194;-78
2022/04/08 19:30:56;;;;;;;6.65;5.90;;;;;;;;;;10410054;28;20337;-76
2022/04/08 19:35:58;;;;;;;3.72;3.63;;;;;;;;;;10412316;28;20223;-78
2022/04/08 19:41:03;;;;;;;4.65;4.07;;;;;;;;;;10410418;28;20286;-75
2022/04/08 19:46:04;;;;;;;3.97;3.40;;;;;;;;;;10414037;28;20195;-79
2022/04/08 19:51:05;;;;;;;3.55;3.30;;;;;;;;;;10419028;28;20678;-77
2022/04/08 19:56:06;;;;;;;3.25;3.03;;;;;;;;;;10416113;28;20241;-75
2022/04/08 20:01:07;;;;;;;3.35;3.15;;;;;;;;;;10419592;28;20226;-75
2022/04/08 20:06:08;;;;;;;3.25;3.05;;;;;;;;;;10420111;28;20297;-76
2022/04/08 20:11:09;;;;;;;2.75;2.53;;;;;;;;;;10416799;28;20238;-75
2022/04/08 20:16:10;;;;;;;3.50;3.38;;;;;;;;;;10416288;28;20679;-75
2022/04/08 20:21:12;;;;;;;6.65;6.05;;;;;;;;;;10416639;28;20245;-76
2022/04/08 20:26:13;;;;;;;3.20;3.00;;;;;;;;;;10414261;28;20199;-76
2022/04/08 20:31:14;;;;;;;5.05;3.05;;;;;;;;;;10425537;28;20598;-76
2022/04/08 20:36:15;;;;;;;4.15;2.28;;;;;;;;;;10423195;28;20220;-75
2022/04/08 20:41:16;;;;;;;3.45;2.15;;;;;;;;;;10424928;28;20671;-76
2022/04/08 20:46:17;;;;;;;2.47;2.25;;;;;;;;;;10425107;28;20204;-76
2022/04/08 20:51:18;;;;;;;3.35;2.45;;;;;;;;;;10432828;28;20698;-75
2022/04/08 20:56:19;;;;;;;3.42;2.55;;;;;;;;;;10432953;28;20231;-75
2022/04/08 21:01:20;;;;;;;2.30;2.20;;;;;;;;;;10415330;28;20268;-74
2022/04/08 21:06:22;;;;;;;2.38;2.25;;;;;;;;;;10429746;28;20284;-76
2022/04/08 21:11:23;;;;;;;3.05;2.30;;;;;;;;;;10430083;28;20203;-76
2022/04/08 21:16:24;;;;;;;2.50;2.38;;;;;;;;;;10424539;28;20690;-76
2022/04/08 21:21:25;;;;;;;2.80;2.65;;;;;;;;;;10425339;28;20210;-76
2022/04/08 21:26:26;;;;;;;2.90;2.70;;;;;;;;;;10426674;28;20206;-76
2022/04/08 21:31:27;;;;;;;2.40;2.20;;;;;;;;;;10425833;28;20219;-76
2022/04/08 21:36:28;;;;;;;3.08;2.67;;;;;;;;;;10419378;28;20303;-76
2022/04/08 21:41:30;;;;;;;2.75;2.58;;;;;;;;;;10416264;28;20344;-76
2022/04/08 21:46:31;;;;;;;3.65;3.10;;;;;;;;;;10426303;28;20211;-76
2022/04/08 21:51:32;;;;;;;2.83;2.60;;;;;;;;;;10430714;28;20407;-76
2022/04/08 21:56:33;;;;;;;2.60;2.40;;;;;;;;;;10421433;28;20291;-75
2022/04/08 22:01:35;;;;;;;2.70;2.50;;;;;;;;;;10438105;28;20219;-76
2022/04/08 22:06:36;;;;;;;2.05;1.70;;;;;;;;;;10410970;28;20202;-75
2022/04/08 22:11:37;;;;;;;2.60;1.98;;;;;;;;;;10425579;28;20207;-75
2022/04/08 22:16:38;;;;;;;3.53;1.98;;;;;;;;;;10431240;28;20250;-75
2022/04/08 22:21:39;;;;;;;2.97;1.73;;;;;;;;;;10427028;28;20207;-76
2022/04/08 22:26:40;;;;;;;2.72;2.53;;;;;;;;;;10419028;28;20205;-75
2022/04/08 22:31:41;;;;;;;4.63;2.95;;;;;;;;;;10422042;28;20238;-76
2022/04/08 22:36:42;;;;;;;3.78;3.55;;;;;;;;;;10401119;28;20293;-76
2022/04/08 22:41:44;;;;;;;3.53;3.28;;;;;;;;;;10419541;28;20206;-76
2022/04/08 22:46:45;;;;;;;5.18;3.53;;;;;;;;;;10423024;28;20203;-76
2022/04/08 22:51:46;;;;;;;7.32;4.47;;;;;;;;;;10422653;28;20211;-76
2022/04/08 22:56:48;;;;;;;5.45;3.83;;;;;;;;;;10408804;28;20283;-76
2022/04/08 23:01:49;;;;;;;3.90;3.60;;;;;;;;;;10431856;28;20229;-76
2022/04/08 23:06:50;;;;;;;3.83;3.63;;;;;;;;;;10428569;28;20235;-76
2022/04/08 23:11:51;;;;;;;4.13;3.55;;;;;;;;;;10427400;28;20207;-76
2022/04/08 23:16:52;;;;;;;4.60;4.20;;;;;;;;;;10425706;28;20221;-76
2022/04/08 23:21:54;;;;;;;5.38;3.90;;;;;;;;;;10415388;28;20699;-76
2022/04/08 23:26:56;;;;;;;4.93;4.20;;;;;;;;;;10420670;28;20207;-76
2022/04/08 23:31:57;;;;;;;5.10;4.13;;;;;;;;;;10423218;28;20231;-76
2022/04/08 23:36:58;;;;;;;5.95;4.00;;;;;;;;;;10412102;28;20215;-76
2022/04/08 23:42:00;;;;;;;4.90;4.00;;;;;;;;;;10421608;28;20202;-75
2022/04/08 23:47:01;;;;;;;4.40;4.20;;;;;;;;;;10419463;28;20199;-69
2022/04/08 23:52:02;;;;;;;4.10;3.85;;;;;;;;;;10418372;28;20214;-76
2022/04/08 23:57:03;;;;;;;3.78;3.40;;;;;;;;;;10423449;28;20227;-77
